createdAt,value
2024-02-08T00:01:47.322Z,100152.41
2024-02-08T00:04:36.469Z,100147.06
2024-02-08T00:07:24.009Z,100148.88
2024-02-08T00:10:11.701Z,100163.06
2024-02-08T00:12:59.250Z,100161.38
2024-02-08T00:15:47.434Z,100166.06
2024-02-08T00:18:37.525Z,100173.03
2024-02-08T00:21:25.247Z,100166.06
2024-02-08T00:24:12.858Z,100154.53
2024-02-08T00:27:00.499Z,100150.06
2024-02-08T00:29:48.237Z,100158.06
2024-02-08T00:32:35.770Z,100161.72
2024-02-08T00:35:24.531Z,100160.22
2024-02-08T00:38:12.246Z,100169.69
2024-02-08T00:40:59.931Z,100163.72
2024-02-08T00:43:47.530Z,100163.72
2024-02-08T00:46:35.039Z,100162.03
2024-02-08T00:49:22.657Z,100167.38
2024-02-08T00:52:10.666Z,100165.69
2024-02-08T00:54:58.174Z,100164.88
2024-02-08T00:57:45.976Z,100164.06
2024-02-08T01:00:39.249Z,100173.84
2024-02-08T01:03:27.110Z,100169.38
2024-02-08T01:06:14.708Z,100158.91
2024-02-08T01:09:02.297Z,100146.41
2024-02-08T01:11:49.795Z,100155.38
2024-02-08T01:14:38.679Z,100162.53
2024-02-08T01:17:26.345Z,100143.09
2024-02-08T01:20:22.801Z,100142.22
2024-02-08T01:23:11.034Z,100140.41
2024-02-08T01:25:58.659Z,100136.09
2024-02-08T01:28:46.199Z,100138.59
2024-02-08T01:31:38.491Z,100144.06
2024-02-08T01:34:30.436Z,100148.56
2024-02-08T01:37:18.786Z,100150.38
2024-02-08T01:40:18.065Z,100148.75
2024-02-08T01:43:07.509Z,100134.56
2024-02-08T01:45:55.593Z,100124.94
2024-02-08T01:48:46.082Z,100123.09
2024-02-08T01:51:33.893Z,100118.94
2024-02-08T01:54:21.506Z,100119.78
2024-02-08T01:57:10.067Z,100131.91
2024-02-08T01:59:57.872Z,100129.41
2024-02-08T02:02:55.091Z,100132.25
2024-02-08T02:05:47.960Z,100133.75
2024-02-08T02:08:35.927Z,100129.59
2024-02-08T02:11:49.188Z,100143.75
2024-02-08T02:14:40.194Z,100142.06
2024-02-08T02:17:28.064Z,100151.91
2024-02-08T02:20:20.058Z,100153.56
2024-02-08T02:23:10.822Z,100144.09
2024-02-08T02:26:00.251Z,100126.59
2024-02-08T02:28:49.091Z,100118.44
2024-02-08T02:31:38.358Z,100112.47
2024-02-08T02:34:27.168Z,100101.81
2024-02-08T02:37:15.934Z,100107.81
2024-02-08T02:40:03.734Z,100111.44
2024-02-08T02:42:57.516Z,100102.47
2024-02-08T02:45:45.142Z,100096.31
2024-02-08T02:48:36.442Z,100094.81
2024-02-08T02:51:27.670Z,100099.97
2024-02-08T02:54:16.862Z,100092.97
2024-02-08T02:57:04.649Z,100093.16
2024-02-08T02:59:52.270Z,100093.16
2024-02-08T03:02:39.770Z,100092.97
2024-02-08T03:05:27.295Z,100082.50
2024-02-08T03:08:17.847Z,100075.38
2024-02-08T03:11:07.116Z,100078.19
2024-02-08T03:13:56.588Z,100077.19
2024-02-08T03:16:44.275Z,100080.84
2024-02-08T03:19:37.189Z,100090.66
2024-02-08T03:22:27.234Z,100081.03
2024-02-08T03:25:17.929Z,100070.38
2024-02-08T03:28:07.557Z,100077.34
2024-02-08T03:30:57.234Z,100066.03
2024-02-08T03:33:45.609Z,100064.19
2024-02-08T03:36:33.344Z,100067.03
2024-02-08T03:39:29.749Z,100052.91
2024-02-08T03:42:18.193Z,100063.38
2024-02-08T03:45:08.145Z,100075.00
2024-02-08T03:48:05.713Z,100067.88
2024-02-08T03:50:53.371Z,100066.03
2024-02-08T03:53:41.792Z,100061.88
2024-02-08T03:56:38.101Z,100056.56
2024-02-08T03:59:27.672Z,100056.56
2024-02-08T04:02:16.257Z,100046.75
2024-02-08T04:05:07.575Z,100048.72
2024-02-08T04:08:00.558Z,100043.41
2024-02-08T04:10:48.341Z,100045.09
2024-02-08T04:13:55.445Z,100057.69
2024-02-08T04:17:01.752Z,100057.69
2024-02-08T04:20:08.146Z,100059.38
2024-02-08T04:23:14.520Z,100053.19
2024-02-08T04:26:25.781Z,100059.50
2024-02-08T04:29:32.012Z,100043.72
2024-02-08T04:32:38.362Z,100035.88
2024-02-08T04:35:44.850Z,100042.25
2024-02-08T04:38:50.837Z,100032.41
2024-02-08T04:42:00.790Z,100028.94
2024-02-08T04:45:07.106Z,100013.78
2024-02-08T04:48:13.487Z,100008.63
2024-02-08T04:51:19.704Z,100000.81
2024-02-08T04:54:10.891Z,99998.81
2024-02-08T04:57:00.797Z,99999.31
2024-02-08T04:59:52.237Z,99998.31
2024-02-08T05:02:41.912Z,99982.34
2024-02-08T05:05:29.625Z,99987.66
2024-02-08T05:08:17.431Z,99993.00
2024-02-08T05:11:11.027Z,99994.84
2024-02-08T05:14:02.787Z,99998.16
2024-02-08T05:16:55.907Z,99991.31
2024-02-08T05:19:45.957Z,99987.66
2024-02-08T05:22:34.163Z,99995.66
2024-02-08T05:25:25.558Z,99995.00
2024-02-08T05:28:14.244Z,100003.81
2024-02-08T05:31:02.261Z,100006.63
2024-02-08T05:33:53.296Z,100008.47
2024-02-08T05:36:41.055Z,100000.50
2024-02-08T05:39:29.700Z,100006.63
2024-02-08T05:42:18.851Z,100008.31
2024-02-08T05:45:21.775Z,100007.63
2024-02-08T05:48:09.523Z,100007.63
2024-02-08T05:51:03.395Z,99998.00
2024-02-08T05:53:53.091Z,99994.31
2024-02-08T05:56:40.919Z,99984.34
2024-02-08T05:59:30.542Z,99980.84
2024-02-08T06:02:25.944Z,99979.69
2024-02-08T06:05:19.366Z,99974.84
2024-02-08T06:08:21.271Z,99965.06
2024-02-08T06:11:18.050Z,99961.19
2024-02-08T06:14:18.927Z,99957.38
2024-02-08T06:17:10.167Z,99968.53
2024-02-08T06:19:57.703Z,99957.91
2024-02-08T06:22:45.403Z,99970.03
2024-02-08T06:25:37.670Z,99969.69
2024-02-08T06:28:27.901Z,99964.03
2024-02-08T06:31:21.489Z,99953.03
2024-02-08T06:34:29.451Z,99944.06
2024-02-08T06:37:27.720Z,99942.03
2024-02-08T06:40:36.605Z,99965.34
2024-02-08T06:43:24.213Z,99966.16
2024-02-08T06:46:18.987Z,99962.66
2024-02-08T06:49:39.801Z,99944.50
2024-02-08T06:52:46.055Z,99939.88
2024-02-08T06:55:52.335Z,99928.00
2024-02-08T06:59:01.173Z,99915.56
2024-02-08T07:02:07.436Z,99920.34
2024-02-08T07:05:13.882Z,99909.53
2024-02-08T07:08:22.099Z,99889.88
2024-02-08T07:11:33.813Z,99893.19
2024-02-08T07:14:40.028Z,99902.47
2024-02-08T07:17:46.298Z,99896.34
2024-02-08T07:20:52.621Z,99900.63
2024-02-08T07:23:58.657Z,99897.81
2024-02-08T07:27:04.823Z,99881.47
2024-02-08T07:30:11.137Z,99891.31
2024-02-08T07:33:17.672Z,99899.13
2024-02-08T07:36:24.542Z,99903.28
2024-02-08T07:39:30.960Z,99897.97
2024-02-08T07:42:30.440Z,99880.78
2024-02-08T07:45:18.396Z,99873.44
2024-02-08T07:48:14.527Z,99866.09
2024-02-08T07:51:05.342Z,99872.75
2024-02-08T07:53:55.383Z,99869.22
2024-02-08T07:56:49.182Z,99858.22
2024-02-08T07:59:36.694Z,99855.38
2024-02-08T08:02:25.257Z,99862.19
2024-02-08T08:05:16.554Z,99851.38
2024-02-08T08:08:12.475Z,99845.84
2024-02-08T08:11:04.771Z,99846.69
2024-02-08T08:13:56.466Z,99840.34
2024-02-08T08:17:03.893Z,99835.84
2024-02-08T08:19:52.401Z,99841.16
2024-02-08T08:22:40.213Z,99834.22
2024-02-08T08:25:52.737Z,99823.53
2024-02-08T08:28:46.860Z,99816.38
2024-02-08T08:31:38.927Z,99815.56
2024-02-08T08:34:36.871Z,99806.72
2024-02-08T08:37:43.341Z,99804.03
2024-02-08T08:40:41.109Z,99799.56
2024-02-08T08:43:32.929Z,99789.09
2024-02-08T08:46:22.414Z,99778.59
2024-02-08T08:49:15.601Z,99779.59
2024-02-08T08:52:05.798Z,99777.75
2024-02-08T08:55:12.933Z,99781.25
2024-02-08T08:58:04.947Z,99783.94
2024-02-08T09:01:05.603Z,99781.25
2024-02-08T09:04:24.021Z,99779.59
2024-02-08T09:07:12.759Z,99789.09
2024-02-08T09:10:04.894Z,99774.28
2024-02-08T09:13:03.723Z,99768.94
2024-02-08T09:16:17.511Z,99771.44
2024-02-08T09:19:05.860Z,99755.63
2024-02-08T09:21:54.325Z,99750.09
2024-02-08T09:24:45.823Z,99747.44
2024-02-08T09:27:36.103Z,99741.75
2024-02-08T09:30:40.226Z,99738.44
2024-02-08T09:33:47.032Z,99726.94
2024-02-08T09:36:35.831Z,99724.94
2024-02-08T09:39:46.254Z,99708.09
2024-02-08T09:42:39.958Z,99711.63
2024-02-08T09:45:35.787Z,99699.31
2024-02-08T09:48:38.252Z,99699.31
2024-02-08T09:51:28.095Z,99703.63
2024-02-08T09:54:26.258Z,99690.31
2024-02-08T09:57:37.950Z,99686.78
2024-02-08T10:00:55.713Z,99666.50
2024-02-08T10:03:46.209Z,99660.31
2024-02-08T10:06:57.699Z,99650.69
2024-02-08T10:09:48.998Z,99643.53
2024-02-08T10:12:52.291Z,99640.22
2024-02-08T10:15:40.900Z,99642.03
2024-02-08T10:18:39.576Z,99638.38
2024-02-08T10:21:30.237Z,99640.03
2024-02-08T10:24:28.436Z,99622.22
2024-02-08T10:27:23.148Z,99599.22
2024-02-08T10:30:12.243Z,99597.41
2024-02-08T10:33:05.869Z,99585.91
2024-02-08T10:36:11.865Z,99583.06
2024-02-08T10:39:08.945Z,99592.06
2024-02-08T10:42:00.440Z,99597.41
2024-02-08T10:44:53.251Z,99601.72
2024-02-08T10:47:42.736Z,99608.06
2024-02-08T10:50:36.188Z,99613.22
2024-02-08T10:53:44.474Z,99611.53
2024-02-08T10:56:46.342Z,99580.38
2024-02-08T10:59:49.315Z,99558.06
2024-02-08T11:02:42.161Z,99549.91
2024-02-08T11:05:30.877Z,99538.41
2024-02-08T11:08:26.247Z,99559.75
2024-02-08T11:11:22.058Z,99570.22
2024-02-08T11:14:10.316Z,99564.03
2024-02-08T11:17:05.622Z,99562.22
2024-02-08T11:19:59.750Z,99554.22
2024-02-08T11:22:58.555Z,99552.56
2024-02-08T11:25:46.811Z,99555.22
2024-02-08T11:28:46.011Z,99561.38
2024-02-08T11:31:43.210Z,99550.72
2024-02-08T11:34:46.322Z,99558.69
2024-02-08T11:37:39.751Z,99557.69
2024-02-08T11:40:30.819Z,99551.56
2024-02-08T11:43:25.350Z,99546.41
2024-02-08T11:46:20.206Z,99539.41
2024-02-08T11:49:16.481Z,99520.78
2024-02-08T11:52:08.914Z,99495.13
2024-02-08T11:55:10.313Z,99486.13
2024-02-08T11:57:58.808Z,99481.63
2024-02-08T12:00:50.623Z,99457.00
2024-02-08T12:03:45.267Z,99470.31
2024-02-08T12:06:35.776Z,99466.00
2024-02-08T12:09:31.445Z,99466.84
2024-02-08T12:12:20.556Z,99455.53
2024-02-08T12:15:10.781Z,99457.38
2024-02-08T12:18:07.727Z,99450.56
2024-02-08T12:21:03.425Z,99432.78
2024-02-08T12:23:55.832Z,99429.91
2024-02-08T12:26:46.605Z,99421.06
2024-02-08T12:29:39.969Z,99408.78
2024-02-08T12:32:32.083Z,99393.63
2024-02-08T12:35:29.290Z,99408.59
2024-02-08T12:38:18.955Z,99408.41
2024-02-08T12:41:07.737Z,99401.44
2024-02-08T12:43:56.259Z,99388.28
2024-02-08T12:46:49.023Z,99393.63
2024-02-08T12:49:47.601Z,99380.50
2024-02-08T12:52:42.190Z,99378.44
2024-02-08T12:55:35.316Z,99366.16
2024-02-08T12:58:25.341Z,99365.31
2024-02-08T13:01:20.033Z,99371.88
2024-02-08T13:04:08.170Z,99379.69
2024-02-08T13:06:56.793Z,99364.50
2024-02-08T13:09:46.494Z,99323.06
2024-02-08T13:12:34.216Z,99325.53
2024-02-08T13:15:23.200Z,99337.06
2024-02-08T13:18:13.220Z,99311.41
2024-02-08T13:21:05.195Z,99319.41
2024-02-08T13:23:53.205Z,99315.72
2024-02-08T13:26:40.780Z,99312.22
2024-02-08T13:29:28.289Z,99297.28
2024-02-08T13:32:17.341Z,99290.91
2024-02-08T13:35:05.459Z,99281.28
2024-02-08T13:37:55.762Z,99279.44
2024-02-08T13:40:44.865Z,99262.44
2024-02-08T13:43:34.273Z,99253.44
2024-02-08T13:46:23.162Z,99250.56
2024-02-08T13:49:10.943Z,99241.56
2024-02-08T13:51:58.506Z,99232.56
2024-02-08T13:54:49.543Z,99233.81
2024-02-08T14:23:50.190Z,99137.41
2024-02-08T14:26:44.108Z,99118.47
2024-02-08T14:29:38.875Z,99123.09
2024-02-08T14:32:32.406Z,99110.69
2024-02-08T14:35:26.854Z,99106.03
2024-02-08T14:38:15.665Z,99105.16
2024-02-08T14:41:06.466Z,99097.25
2024-02-08T14:44:07.433Z,99097.31
2024-02-08T14:46:58.144Z,99095.34
2024-02-08T14:50:02.471Z,99094.13
2024-02-08T14:52:51.087Z,99079.75
2024-02-08T14:55:46.302Z,99079.53
2024-02-08T14:58:34.346Z,99073.59
2024-02-08T15:01:41.299Z,99065.56
2024-02-08T15:04:32.277Z,99053.88
2024-02-08T15:07:40.249Z,99039.69
2024-02-08T15:10:44.493Z,99036.38
2024-02-08T15:13:48.050Z,99033.91
2024-02-08T15:16:36.184Z,99025.47
2024-02-08T15:19:27.698Z,99026.69
2024-02-08T15:22:41.183Z,99031.81
2024-02-08T15:25:36.211Z,99024.63
2024-02-08T15:28:44.410Z,99021.72
2024-02-08T15:31:48.827Z,99015.97
2024-02-08T15:34:56.638Z,99018.63
2024-02-08T15:37:44.647Z,99009.38
2024-02-08T15:40:32.748Z,99005.47
2024-02-08T15:43:20.466Z,99008.16
2024-02-08T15:46:12.105Z,99008.75
2024-02-08T15:49:01.407Z,99009.56
2024-02-08T15:51:51.030Z,99004.22
2024-02-08T15:54:39.692Z,99012.03
2024-02-08T15:57:39.471Z,98998.44
2024-02-08T16:00:56.538Z,98989.63
2024-02-08T16:03:58.397Z,98980.56
2024-02-08T16:06:55.447Z,98968.81
2024-02-08T16:09:51.308Z,98972.94
2024-02-08T16:12:39.265Z,98964.09
2024-02-08T16:15:29.021Z,98957.72
2024-02-08T16:18:26.147Z,98938.19
2024-02-08T16:21:26.554Z,98943.31
2024-02-08T16:24:14.966Z,98935.50
2024-02-08T16:27:08.581Z,98920.72
2024-02-08T16:30:09.757Z,98914.13
2024-02-08T16:33:09.596Z,98914.94
2024-02-08T16:36:10.539Z,98908.19
2024-02-08T16:39:23.063Z,98923.38
2024-02-08T16:42:19.436Z,98926.25
2024-02-08T16:45:19.104Z,98919.03
2024-02-08T16:48:15.604Z,98922.53
2024-02-08T16:51:11.550Z,98912.88
2024-02-08T16:54:18.791Z,98908.34
2024-02-08T16:57:08.946Z,98894.16
2024-02-08T17:00:20.089Z,98898.69
2024-02-08T17:03:30.802Z,98902.84
2024-02-08T17:06:29.373Z,98901.78
2024-02-08T17:09:17.431Z,98931.63
2024-02-08T17:12:10.141Z,98924.66
2024-02-08T17:15:19.177Z,98923.00
2024-02-08T17:18:07.695Z,98917.66
2024-02-08T17:21:30.180Z,98902.63
2024-02-08T17:24:37.031Z,98901.22
2024-02-08T17:27:50.375Z,98888.88
2024-02-08T17:30:58.979Z,98891.56
2024-02-08T17:33:51.173Z,98881.31
2024-02-08T17:36:45.281Z,98883.75
2024-02-08T17:39:41.757Z,98876.97
2024-02-08T17:42:31.939Z,98872.91
2024-02-08T17:45:21.472Z,98865.69
2024-02-08T17:48:14.417Z,98868.38
2024-02-08T17:51:08.638Z,98856.03
2024-02-08T17:54:01.621Z,98853.13
2024-02-08T17:56:49.769Z,98848.84
2024-02-08T17:59:44.839Z,98844.31
2024-02-08T18:02:34.351Z,98839.41
2024-02-08T18:05:28.733Z,98842.66
2024-02-08T18:08:20.509Z,98837.31
2024-02-08T18:11:11.093Z,98835.69
2024-02-08T18:14:00.014Z,98835.50
2024-02-08T18:16:47.688Z,98832.59
2024-02-08T18:19:38.324Z,98835.28
2024-02-08T18:22:32.841Z,98830.50
2024-02-08T18:25:30.392Z,98833.19
2024-02-08T18:28:21.241Z,98829.66
2024-02-08T18:31:09.399Z,98824.38
2024-02-08T18:33:58.473Z,98826.19
2024-02-08T18:36:47.404Z,98819.81
2024-02-08T18:39:39.507Z,98814.69
2024-02-08T18:42:28.666Z,98820.84
2024-02-08T18:45:18.548Z,98812.84
2024-02-08T18:48:12.199Z,98809.34
2024-02-08T18:51:04.347Z,98815.50
2024-02-08T18:53:53.838Z,98809.34
2024-02-08T18:56:43.058Z,98802.34
2024-02-08T18:59:36.649Z,98813.88
2024-02-08T19:02:28.183Z,98800.53
2024-02-08T19:05:17.645Z,98786.31
2024-02-08T19:08:08.762Z,98791.44
2024-02-08T19:11:00.025Z,98786.09
2024-02-08T19:13:48.481Z,98787.16
2024-02-08T19:16:43.769Z,98787.38
2024-02-08T19:19:35.070Z,98787.97
2024-02-08T19:22:24.613Z,98781.81
2024-02-08T19:25:15.582Z,98769.47
2024-02-08T19:28:07.863Z,98776.69
2024-02-08T19:31:00.148Z,98774.81
2024-02-08T19:33:52.458Z,98768.66
2024-02-08T19:36:54.178Z,98765.56
2024-02-08T19:39:42.772Z,98764.94
2024-02-08T19:42:32.408Z,98756.13
2024-02-08T19:45:32.167Z,98756.34
2024-02-08T19:48:20.208Z,98752.84
2024-02-08T19:51:10.486Z,98750.19
2024-02-08T19:54:09.300Z,98748.53
2024-02-08T19:57:04.129Z,98748.31
2024-02-08T19:59:54.797Z,98753.44
2024-02-08T20:02:44.589Z,98748.31
2024-02-08T20:05:32.837Z,98749.75
2024-02-08T20:08:23.932Z,98748.91
2024-02-08T20:11:13.036Z,98741.94
2024-02-08T20:14:01.313Z,98749.13
2024-02-08T20:16:55.228Z,98741.72
2024-02-08T20:19:45.030Z,98740.09
2024-02-08T20:22:32.768Z,98737.63
2024-02-08T20:25:28.734Z,98738.44
2024-02-08T20:28:17.756Z,98736.59
2024-02-08T20:31:08.799Z,98735.97
2024-02-08T20:33:57.491Z,98732.50
2024-02-08T20:36:46.492Z,98727.38
2024-02-08T20:39:37.202Z,98726.13
2024-02-08T20:42:25.135Z,98721.81
2024-02-08T20:45:12.805Z,98726.13
2024-02-08T20:48:09.092Z,98726.94
2024-02-08T20:51:00.613Z,98719.94
2024-02-08T20:53:48.325Z,98717.06
2024-02-08T20:56:39.415Z,98715.66
2024-02-08T20:59:29.012Z,98703.91
2024-02-08T21:02:16.917Z,98715.44
2024-02-08T21:05:06.946Z,98718.31
2024-02-08T21:07:54.718Z,98717.50
2024-02-08T21:10:42.452Z,98719.94
2024-02-08T21:13:31.176Z,98715.44
2024-02-08T21:16:20.993Z,98715.88
2024-02-08T21:19:11.613Z,98716.25
2024-02-08T21:21:59.330Z,98717.28
2024-02-08T21:24:47.264Z,98714.81
2024-02-08T21:27:35.163Z,98710.09
2024-02-08T21:30:22.759Z,98702.28
2024-02-08T21:33:11.765Z,98706.59
2024-02-08T21:36:05.137Z,98704.75
2024-02-08T21:38:53.580Z,98695.91
2024-02-08T21:41:42.800Z,98706.16
2024-02-08T21:44:31.730Z,98700.81
2024-02-08T21:47:19.887Z,98696.50
2024-02-08T21:50:09.432Z,98693.00
2024-02-08T21:52:57.143Z,98694.88
2024-02-08T21:55:45.143Z,98686.63
2024-02-08T21:58:32.784Z,98691.16
2024-02-08T22:01:36.911Z,98689.31
2024-02-08T22:04:25.662Z,98690.09
2024-02-08T22:07:14.124Z,98682.31
2024-02-08T22:10:01.937Z,98672.47
2024-02-08T22:12:49.651Z,98676.16
2024-02-08T22:15:38.711Z,98669.38
2024-02-08T22:18:26.528Z,98671.03
2024-02-08T22:21:18.434Z,98669.38
2024-02-08T22:24:06.672Z,98658.69
2024-02-08T22:26:54.272Z,98652.53
2024-02-08T22:29:41.860Z,98652.75
2024-02-08T22:32:29.934Z,98648.66
2024-02-08T22:35:17.821Z,98644.59
2024-02-08T22:38:09.111Z,98641.31
2024-02-08T22:40:59.321Z,98639.25
2024-02-08T22:43:47.031Z,98639.03
2024-02-08T22:46:36.536Z,98621.34
2024-02-08T22:49:26.490Z,98626.47
2024-02-08T22:52:14.358Z,98619.50
2024-02-08T22:55:02.048Z,98612.53
2024-02-08T22:58:01.540Z,98611.69
2024-02-08T23:00:50.076Z,98607.41
2024-02-08T23:03:38.210Z,98602.06
2024-02-08T23:06:31.562Z,98601.00
2024-02-08T23:09:21.227Z,98594.84
2024-02-08T23:12:11.929Z,98586.25
2024-02-08T23:14:59.580Z,98582.75
2024-02-08T23:17:55.989Z,98580.69
2024-02-08T23:20:51.817Z,98566.28
2024-02-08T23:23:39.858Z,98566.28
2024-02-08T23:26:27.389Z,98563.38
2024-02-08T23:29:17.014Z,98560.25
2024-02-08T23:32:05.491Z,98553.09
2024-02-08T23:34:53.740Z,98548.53
2024-02-08T23:37:41.852Z,98549.97
2024-02-08T23:40:29.881Z,98542.97
2024-02-08T23:43:35.044Z,98536.16
2024-02-08T23:46:32.868Z,98529.97
2024-02-08T23:49:23.162Z,98529.97
2024-02-08T23:52:13.742Z,98526.28
2024-02-08T23:55:02.451Z,98519.06
2024-02-08T23:57:50.167Z,98511.28
